Capay, California
Current Conditions -  °F | °C
As of 3:53 AM on Saturday 25 Oct 2014 (Local Time) from KVCB Reporting Station
Broken Clouds Broken Clouds  
Wind Chill: 63°   Ceiling: 4300
Heat Index: 63°   Visibility: 10mi
Dew Point: 52°   Wind: 9mph
Humidity: 67%   Direction: 160°SSE
Pressure: 29.9"   Gusts: NA
Location:  38.7°N, 122.04°W
Report Text: KVCB 251053Z AUTO 16008KT 10SM BKN043 17/11 A2990 RMK AO2 SLP122 T01720111 TSNO
Loading
Personal Weather Stations






























Interactive Weather Map
Tropical Storm Tracking
New forecast layout! Learn more

10-Day Weather Forecast

Advertisements
Track Severe Weather on mobile